CheckWX is a tool to help pilots better visualize weather data.  It is not intended as a substitute for an official pre-flight weather briefing.

22:07:24 UTC

KCMX TAF
Houghton County Memorial Airport
Hancock, Michigan, USA
KCMX 201735Z 2018/2118 30005KT 3SM BR VCSH OVC005 FM202200 36006KT 2SM BR VCSH OVC005 FM210300 35006KT 1SM BR OVC004 FM211200 26007KT 1 1/2SM BR SCT014 FM211400 25013G21KT P6SM SCT030

Mar-20@
18:00 UTC

Mar-20 @ 18:00 UTC

Mar-20@
22:00 UTC

Mar-20 @ 22:00 UTC

KCMX 201735Z 2018/2118 30005KT 3SM BR VCSH OVC005

Expired

Wind
  • 300° at 5 KTS
Conditions
Mist
Cloud Levels
  • Overcast at 500' AGL

Mar-20@
22:00 UTC

Mar-20 @ 22:00 UTC

Mar-21@
03:00 UTC

Mar-21 @ 03:00 UTC

FM202200 36006KT 2SM BR VCSH OVC005

From

From Standard forecast or significant change

Wind
  • 360° at 6 KTS
Conditions
Mist
Cloud Levels
  • Overcast at 500' AGL

Mar-21@
03:00 UTC

Mar-21 @ 03:00 UTC

Mar-21@
12:00 UTC

Mar-21 @ 12:00 UTC

FM210300 35006KT 1SM BR OVC004

From

From Standard forecast or significant change

Wind
  • 350° at 6 KTS
Conditions
Mist
Cloud Levels
  • Overcast at 400' AGL

Mar-21@
12:00 UTC

Mar-21 @ 12:00 UTC

Mar-21@
14:00 UTC

Mar-21 @ 14:00 UTC

FM211200 26007KT 1 1/2SM BR SCT014

From

From Standard forecast or significant change

Wind
  • 260° at 7 KTS
Conditions
Mist
Cloud Levels
  • Scattered at 1,400' AGL

Mar-21@
14:00 UTC

Mar-21 @ 14:00 UTC

Mar-21@
18:00 UTC

Mar-21 @ 18:00 UTC

FM211400 25013G21KT P6SM SCT030

From

From Standard forecast or significant change

Wind
  • 250° at 13 KTS
  • {Gusting to 21 KTS
Cloud Levels
  • Scattered at 3,000' AGL